createdAt,value
2022-07-28T00:00:08.390Z,14.08
2022-07-28T00:02:35.418Z,14.09
2022-07-28T00:05:02.268Z,14.06
2022-07-28T00:07:28.966Z,14.07
2022-07-28T00:10:00.116Z,14.08
2022-07-28T00:12:27.274Z,14.05
2022-07-28T00:14:53.922Z,13.98
2022-07-28T00:17:20.583Z,13.93
2022-07-28T00:19:47.208Z,13.86
2022-07-28T00:22:13.799Z,13.88
2022-07-28T00:24:41.321Z,13.80
2022-07-28T00:27:08.290Z,13.79
2022-07-28T00:29:50.031Z,13.77
2022-07-28T00:32:18.570Z,13.81
2022-07-28T00:34:45.335Z,13.80
2022-07-28T00:37:14.695Z,13.83
2022-07-28T00:39:42.390Z,13.81
2022-07-28T00:42:09.245Z,13.78
2022-07-28T00:44:36.564Z,13.71
2022-07-28T00:47:03.285Z,13.73
2022-07-28T00:49:30.023Z,13.72
2022-07-28T00:51:57.254Z,13.68
2022-07-28T00:54:23.926Z,13.65
2022-07-28T00:56:51.008Z,13.63
2022-07-28T00:59:17.647Z,13.56
2022-07-28T01:01:44.565Z,13.55
2022-07-28T01:04:11.732Z,13.51
2022-07-28T01:07:16.951Z,13.52
2022-07-28T01:09:52.876Z,13.56
2022-07-28T01:12:30.138Z,13.59
2022-07-28T01:15:14.977Z,13.60
2022-07-28T01:18:04.997Z,13.61
2022-07-28T01:20:34.631Z,13.62
2022-07-28T01:23:32.003Z,13.63
2022-07-28T01:26:23.271Z,13.61
2022-07-28T01:29:20.157Z,13.60
2022-07-28T01:31:58.164Z,13.60
2022-07-28T01:34:32.007Z,13.60
2022-07-28T01:37:06.278Z,13.56
2022-07-28T01:39:36.061Z,13.58
2022-07-28T01:42:05.014Z,13.56
2022-07-28T01:44:34.416Z,13.53
2022-07-28T01:47:05.109Z,13.51
2022-07-28T01:49:32.393Z,13.45
2022-07-28T01:52:02.141Z,13.41
2022-07-28T01:54:30.384Z,13.33
2022-07-28T01:56:59.219Z,13.31
2022-07-28T01:59:30.221Z,13.31
2022-07-28T02:02:00.418Z,13.26
2022-07-28T02:04:31.118Z,13.25
2022-07-28T02:06:59.545Z,13.19
2022-07-28T02:09:27.330Z,13.18
2022-07-28T02:11:55.965Z,13.18
2022-07-28T02:14:25.692Z,13.19
2022-07-28T02:16:57.845Z,13.12
2022-07-28T02:19:26.045Z,13.14
2022-07-28T02:21:54.429Z,13.09
2022-07-28T02:24:26.286Z,13.07
2022-07-28T02:27:00.876Z,13.05
2022-07-28T02:29:50.347Z,13.09
2022-07-28T02:32:33.802Z,13.09
2022-07-28T02:35:09.676Z,13.04
2022-07-28T02:37:39.856Z,12.99
2022-07-28T02:40:12.189Z,12.95
2022-07-28T02:42:40.313Z,12.96
2022-07-28T02:45:11.737Z,12.94
2022-07-28T02:47:44.131Z,12.96
2022-07-28T02:50:14.308Z,12.99
2022-07-28T02:52:42.622Z,13.00
2022-07-28T02:55:12.169Z,13.02
2022-07-28T02:57:41.499Z,13.03
2022-07-28T03:00:08.775Z,13.06
2022-07-28T03:02:36.737Z,13.05
2022-07-28T03:05:07.715Z,13.07
2022-07-28T03:07:50.828Z,13.06
2022-07-28T03:10:33.695Z,13.02
2022-07-28T03:13:05.308Z,12.99
2022-07-28T03:15:32.223Z,13.00
2022-07-28T03:18:00.819Z,12.99
2022-07-28T03:20:28.011Z,13.02
2022-07-28T03:22:55.395Z,13.00
2022-07-28T03:25:40.486Z,13.03
2022-07-28T03:28:09.279Z,12.99
2022-07-28T03:30:41.862Z,12.99
2022-07-28T03:33:09.438Z,12.97
2022-07-28T03:35:44.936Z,12.97
2022-07-28T03:38:14.745Z,12.99
2022-07-28T03:40:46.976Z,13.04
2022-07-28T03:43:16.650Z,13.07
2022-07-28T03:45:46.718Z,13.08
2022-07-28T03:48:16.535Z,13.11
2022-07-28T03:50:43.315Z,13.13
2022-07-28T03:53:19.130Z,13.19
2022-07-28T03:55:50.583Z,13.20
2022-07-28T03:58:26.232Z,13.29
2022-07-28T04:00:55.963Z,13.30
2022-07-28T04:03:43.145Z,13.34
2022-07-28T04:06:09.637Z,13.42
2022-07-28T04:08:36.321Z,13.46
2022-07-28T04:11:03.197Z,13.51
2022-07-28T04:13:31.995Z,13.54
2022-07-28T04:15:59.988Z,13.52
2022-07-28T04:18:26.639Z,13.56
2022-07-28T04:20:53.265Z,13.59
2022-07-28T04:23:20.940Z,13.59
2022-07-28T04:25:47.961Z,13.55
2022-07-28T04:28:15.648Z,13.62
2022-07-28T04:30:44.126Z,13.68
2022-07-28T04:33:11.203Z,13.71
2022-07-28T04:35:37.913Z,13.75
2022-07-28T04:38:04.738Z,13.76
2022-07-28T04:40:33.927Z,13.78
2022-07-28T04:43:00.634Z,13.86
2022-07-28T04:45:27.341Z,13.98
2022-07-28T04:47:54.016Z,13.99
2022-07-28T04:50:21.551Z,13.99
2022-07-28T04:52:57.370Z,14.01
2022-07-28T04:55:24.475Z,14.01
2022-07-28T04:57:51.412Z,14.06
2022-07-28T05:00:18.674Z,14.11
2022-07-28T05:02:45.857Z,14.24
2022-07-28T05:05:13.530Z,14.22
2022-07-28T05:07:41.327Z,14.28
2022-07-28T05:10:10.315Z,14.29
2022-07-28T05:12:37.026Z,14.42
2022-07-28T05:15:04.994Z,14.43
2022-07-28T05:17:31.592Z,14.57
2022-07-28T05:19:58.377Z,14.58
2022-07-28T05:22:24.975Z,14.56
2022-07-28T05:24:51.639Z,14.54
2022-07-28T05:27:18.267Z,14.65
2022-07-28T05:29:47.719Z,14.61
2022-07-28T05:32:16.346Z,14.63
2022-07-28T05:34:43.752Z,14.74
2022-07-28T05:37:10.372Z,14.88
2022-07-28T05:39:37.581Z,14.89
2022-07-28T05:42:04.556Z,14.92
2022-07-28T05:44:37.217Z,15.03
2022-07-28T05:47:05.004Z,15.05
2022-07-28T05:49:31.715Z,15.06
2022-07-28T05:52:00.092Z,15.07
2022-07-28T05:54:26.780Z,14.94
2022-07-28T05:56:53.690Z,15.14
2022-07-28T05:59:20.334Z,15.06
2022-07-28T06:01:47.210Z,14.41
2022-07-28T06:04:26.597Z,14.94
2022-07-28T06:06:54.536Z,15.08
2022-07-28T06:09:21.149Z,15.18
2022-07-28T06:11:49.826Z,14.98
2022-07-28T06:14:16.776Z,14.96
2022-07-28T06:16:44.811Z,15.01
2022-07-28T06:19:11.564Z,15.07
2022-07-28T06:21:38.235Z,15.29
2022-07-28T06:24:05.393Z,15.41
2022-07-28T06:26:32.060Z,15.40
2022-07-28T06:28:58.734Z,15.28
2022-07-28T06:31:25.554Z,15.25
2022-07-28T06:33:52.183Z,14.85
2022-07-28T06:36:18.813Z,15.19
2022-07-28T06:38:45.601Z,15.34
2022-07-28T06:41:12.289Z,15.52
2022-07-28T06:43:39.447Z,15.68
2022-07-28T06:46:06.936Z,15.58
2022-07-28T06:48:34.234Z,15.71
2022-07-28T06:51:01.162Z,15.68
2022-07-28T06:53:32.390Z,15.72
2022-07-28T06:56:00.860Z,15.42
2022-07-28T06:58:27.504Z,15.48
2022-07-28T07:00:54.977Z,15.46
2022-07-28T07:03:21.721Z,15.74
2022-07-28T07:05:51.618Z,15.40
2022-07-28T07:08:20.833Z,15.71
2022-07-28T07:10:47.641Z,14.91
2022-07-28T07:13:14.296Z,15.11
2022-07-28T07:15:41.240Z,15.76
2022-07-28T07:18:08.207Z,15.95
2022-07-28T07:20:34.828Z,16.05
2022-07-28T07:23:01.680Z,16.04
2022-07-28T07:25:28.351Z,15.63
2022-07-28T07:27:55.027Z,15.82
2022-07-28T07:30:21.693Z,15.92
2022-07-28T07:32:48.422Z,16.03
2022-07-28T07:35:15.160Z,15.89
2022-07-28T07:37:41.826Z,15.31
2022-07-28T07:40:09.739Z,15.56
2022-07-28T07:42:36.615Z,15.82
2022-07-28T07:45:03.944Z,16.06
2022-07-28T07:47:31.108Z,15.62
2022-07-28T07:49:58.045Z,15.33
2022-07-28T07:52:27.100Z,15.31
2022-07-28T07:54:54.085Z,15.74
2022-07-28T07:57:23.402Z,15.36
2022-07-28T07:59:50.046Z,15.44
2022-07-28T08:02:16.699Z,15.83
2022-07-28T08:04:43.441Z,15.96
2022-07-28T08:07:10.287Z,15.74
2022-07-28T08:09:37.134Z,15.92
2022-07-28T08:12:04.106Z,15.91
2022-07-28T08:14:30.737Z,16.27
2022-07-28T08:17:07.879Z,16.53
2022-07-28T08:19:34.669Z,16.57
2022-07-28T08:22:02.476Z,16.67
2022-07-28T08:24:34.095Z,16.80
2022-07-28T08:27:02.326Z,16.01
2022-07-28T08:29:29.553Z,16.48
2022-07-28T08:31:56.545Z,16.52
2022-07-28T08:34:31.061Z,16.50
2022-07-28T08:37:00.715Z,16.80
2022-07-28T08:39:27.405Z,17.00
2022-07-28T08:42:18.042Z,17.08
2022-07-28T08:44:58.360Z,17.04
2022-07-28T08:47:40.615Z,17.16
2022-07-28T08:50:16.201Z,17.45
2022-07-28T08:52:45.537Z,17.46
2022-07-28T08:55:19.183Z,17.44
2022-07-28T08:57:46.723Z,17.35
2022-07-28T09:00:13.797Z,17.19
2022-07-28T09:02:47.038Z,16.74
2022-07-28T09:05:22.919Z,17.37
2022-07-28T09:07:54.615Z,17.56
2022-07-28T09:10:22.313Z,17.05
2022-07-28T09:12:49.056Z,17.57
2022-07-28T09:15:15.834Z,17.34
2022-07-28T09:17:43.140Z,17.71
2022-07-28T09:20:11.549Z,18.17
2022-07-28T09:22:56.514Z,17.38
2022-07-28T09:25:23.846Z,17.56
2022-07-28T09:27:51.849Z,18.02
2022-07-28T09:30:33.152Z,17.50
2022-07-28T09:33:41.902Z,17.74
2022-07-28T09:36:04.593Z,16.98
2022-07-28T09:38:43.211Z,17.79
2022-07-28T09:41:10.073Z,18.28
2022-07-28T09:43:37.927Z,18.43
2022-07-28T09:46:16.168Z,17.96
2022-07-28T09:48:51.775Z,17.76
2022-07-28T09:51:24.798Z,17.83
2022-07-28T09:53:52.459Z,17.41
2022-07-28T09:56:19.546Z,17.75
2022-07-28T09:59:00.540Z,17.78
2022-07-28T10:01:31.173Z,17.81
2022-07-28T10:04:04.295Z,18.05
2022-07-28T10:06:34.567Z,17.88
2022-07-28T10:09:05.457Z,17.83
2022-07-28T10:11:32.153Z,17.86
2022-07-28T10:14:00.306Z,17.38
2022-07-28T10:16:32.314Z,17.86
2022-07-28T10:19:01.649Z,18.32
2022-07-28T10:21:31.006Z,18.50
2022-07-28T10:24:04.625Z,18.12
2022-07-28T10:26:33.410Z,18.38
2022-07-28T10:29:05.786Z,18.65
2022-07-28T10:31:48.587Z,18.66
2022-07-28T10:34:24.641Z,18.47
2022-07-28T10:36:54.383Z,18.79
2022-07-28T10:39:23.931Z,18.81
2022-07-28T10:41:51.491Z,18.79
2022-07-28T10:44:19.839Z,18.79
2022-07-28T10:46:46.973Z,18.35
2022-07-28T10:49:14.861Z,18.26
2022-07-28T10:52:02.161Z,18.59
2022-07-28T10:54:33.355Z,18.59
2022-07-28T10:57:04.742Z,17.90
2022-07-28T10:59:58.632Z,18.23
2022-07-28T11:02:52.378Z,18.36
2022-07-28T11:05:39.643Z,18.70
2022-07-28T11:08:15.263Z,18.80
2022-07-28T11:10:50.091Z,19.00
2022-07-28T11:13:23.912Z,19.12
2022-07-28T11:15:57.641Z,19.10
2022-07-28T11:18:24.969Z,19.23
2022-07-28T11:20:58.703Z,18.97
2022-07-28T11:23:47.906Z,19.06
2022-07-28T11:26:20.897Z,19.36
2022-07-28T11:29:00.145Z,19.43
2022-07-28T11:31:47.774Z,19.39
2022-07-28T11:34:19.336Z,19.39
2022-07-28T11:36:58.937Z,19.28
2022-07-28T11:39:30.764Z,19.25
2022-07-28T11:42:28.254Z,19.37
2022-07-28T11:44:57.040Z,19.25
2022-07-28T11:47:25.731Z,19.49
2022-07-28T11:50:12.498Z,19.52
2022-07-28T11:52:40.188Z,19.73
2022-07-28T11:55:06.908Z,19.98
2022-07-28T11:57:41.601Z,19.84
2022-07-28T12:00:08.859Z,19.79
2022-07-28T12:02:35.750Z,19.92
2022-07-28T12:05:06.455Z,19.62
2022-07-28T12:07:35.758Z,19.47
2022-07-28T12:10:43.992Z,19.33
2022-07-28T12:13:09.332Z,19.66
2022-07-28T12:15:36.322Z,19.50
2022-07-28T12:18:03.148Z,19.39
2022-07-28T12:20:32.016Z,19.53
2022-07-28T12:23:02.648Z,19.34
2022-07-28T12:25:30.961Z,19.26
2022-07-28T12:28:02.032Z,19.29
2022-07-28T12:30:29.219Z,19.70
2022-07-28T12:32:56.001Z,20.17
2022-07-28T12:35:25.056Z,20.03
2022-07-28T12:37:52.090Z,19.80
2022-07-28T12:40:27.536Z,20.00
2022-07-28T12:42:54.355Z,20.20
2022-07-28T12:45:21.289Z,20.29
2022-07-28T12:47:48.282Z,20.33
2022-07-28T12:50:19.960Z,19.92
2022-07-28T12:53:08.322Z,20.33
2022-07-28T12:55:35.888Z,20.19
2022-07-28T12:58:03.247Z,20.61
2022-07-28T13:00:36.204Z,20.51
2022-07-28T13:03:26.313Z,20.48
2022-07-28T13:06:04.433Z,20.68
2022-07-28T13:08:47.772Z,20.98
2022-07-28T13:11:42.692Z,20.82
2022-07-28T13:14:03.338Z,20.44
2022-07-28T13:16:30.260Z,20.45
2022-07-28T13:19:05.805Z,20.48
2022-07-28T13:21:56.145Z,19.60
2022-07-28T13:24:26.761Z,19.76
2022-07-28T13:26:53.715Z,19.93
2022-07-28T13:29:20.467Z,20.09
2022-07-28T13:31:47.273Z,20.44
2022-07-28T13:34:14.914Z,20.73
2022-07-28T13:36:42.077Z,20.49
2022-07-28T13:39:10.776Z,20.62
2022-07-28T13:41:57.659Z,20.44
2022-07-28T13:44:24.309Z,20.48
2022-07-28T13:46:51.664Z,20.40
2022-07-28T13:49:21.312Z,20.29
2022-07-28T13:51:49.025Z,20.37
2022-07-28T13:54:19.030Z,20.10
2022-07-28T13:56:46.634Z,19.95
2022-07-28T13:59:13.753Z,20.04
2022-07-28T14:01:42.325Z,20.65
2022-07-28T14:04:14.624Z,20.00
2022-07-28T14:06:44.964Z,20.20
2022-07-28T14:09:12.974Z,20.33
2022-07-28T14:11:49.699Z,19.88
2022-07-28T14:14:25.235Z,20.40
2022-07-28T14:16:54.631Z,20.70
2022-07-28T14:19:23.605Z,20.64
2022-07-28T14:22:12.856Z,20.48
2022-07-28T14:24:44.294Z,19.91
2022-07-28T14:27:11.403Z,20.21
2022-07-28T14:29:40.337Z,20.05
2022-07-28T14:32:07.270Z,20.47
2022-07-28T14:34:34.622Z,20.80
2022-07-28T14:37:03.520Z,20.87
2022-07-28T14:39:35.213Z,20.77
2022-07-28T14:42:01.911Z,20.85
2022-07-28T14:44:28.588Z,20.94
2022-07-28T14:46:55.310Z,20.89
2022-07-28T14:49:22.019Z,20.95
2022-07-28T14:51:48.810Z,21.07
2022-07-28T14:54:16.008Z,21.23
2022-07-28T14:56:43.028Z,20.91
2022-07-28T14:59:09.703Z,20.87
2022-07-28T15:01:36.624Z,20.89
2022-07-28T15:04:04.154Z,21.07
2022-07-28T15:06:31.050Z,20.79
2022-07-28T15:08:58.550Z,20.66
2022-07-28T15:11:25.804Z,20.60
2022-07-28T15:13:52.591Z,20.96
2022-07-28T15:16:19.416Z,20.78
2022-07-28T15:18:46.069Z,20.47
2022-07-28T15:21:16.660Z,20.40
2022-07-28T15:23:44.154Z,19.93
2022-07-28T15:26:10.992Z,19.55
2022-07-28T15:28:37.838Z,20.04
2022-07-28T15:31:06.690Z,20.23
2022-07-28T15:33:43.849Z,20.10
2022-07-28T15:36:14.735Z,20.35
2022-07-28T15:38:41.541Z,20.63
2022-07-28T15:41:13.002Z,20.31
2022-07-28T15:43:39.825Z,20.06
2022-07-28T15:46:10.962Z,19.41
2022-07-28T15:48:39.659Z,19.94
2022-07-28T15:51:06.337Z,19.86
2022-07-28T15:53:34.453Z,20.05
2022-07-28T15:56:01.360Z,20.08
2022-07-28T15:58:27.956Z,20.30
2022-07-28T16:00:54.839Z,19.93
2022-07-28T16:03:24.768Z,19.55
2022-07-28T16:05:52.944Z,19.79
2022-07-28T16:08:22.969Z,20.66
2022-07-28T16:10:51.266Z,20.92
2022-07-28T16:13:22.760Z,21.09
2022-07-28T16:16:14.036Z,21.31
2022-07-28T16:18:42.816Z,20.66
2022-07-28T16:21:10.963Z,21.61
2022-07-28T16:23:38.081Z,21.42
2022-07-28T16:26:07.774Z,21.63
2022-07-28T16:28:35.024Z,21.62
2022-07-28T16:31:01.722Z,22.11
2022-07-28T16:33:33.129Z,22.72
2022-07-28T16:36:03.914Z,23.33
2022-07-28T16:38:30.783Z,22.69
2022-07-28T16:40:57.606Z,22.58
2022-07-28T16:43:24.862Z,22.50
2022-07-28T16:45:54.457Z,22.80
2022-07-28T16:48:21.284Z,23.28
2022-07-28T16:50:48.300Z,23.95
2022-07-28T16:53:16.420Z,23.51
2022-07-28T16:55:43.297Z,22.97
2022-07-28T16:58:09.956Z,23.50
2022-07-28T17:00:36.670Z,22.96
2022-07-28T17:03:03.369Z,22.67
2022-07-28T17:05:30.070Z,22.95
2022-07-28T17:07:56.809Z,23.36
2022-07-28T17:10:27.292Z,22.99
2022-07-28T17:12:54.677Z,22.88
2022-07-28T17:15:22.606Z,23.51
2022-07-28T17:17:53.142Z,23.14
2022-07-28T17:20:20.871Z,22.81
2022-07-28T17:22:50.532Z,22.72
2022-07-28T17:28:05.504Z,22.92
2022-07-28T17:30:33.153Z,22.88
2022-07-28T17:33:04.813Z,23.06
2022-07-28T17:35:35.135Z,22.44
2022-07-28T17:38:04.011Z,23.05
2022-07-28T17:40:30.891Z,22.78
2022-07-28T17:42:57.718Z,22.54
2022-07-28T17:45:24.853Z,22.24
2022-07-28T17:47:51.817Z,22.32
2022-07-28T17:50:19.019Z,22.51
2022-07-28T17:52:48.798Z,22.83
2022-07-28T17:55:57.515Z,23.44
2022-07-28T17:58:28.705Z,23.14
2022-07-28T18:01:10.417Z,22.84
2022-07-28T18:03:57.935Z,22.70
2022-07-28T18:06:34.486Z,23.14
2022-07-28T18:09:06.957Z,22.72
2022-07-28T18:11:57.164Z,22.50
2022-07-28T18:14:29.162Z,21.47
2022-07-28T18:16:56.604Z,21.25
2022-07-28T18:19:23.344Z,21.36
2022-07-28T18:21:50.237Z,21.12
2022-07-28T18:24:18.472Z,21.14
2022-07-28T18:26:45.559Z,20.90
2022-07-28T18:29:12.244Z,20.61
2022-07-28T18:31:45.508Z,21.00
2022-07-28T18:34:13.658Z,21.04
2022-07-28T18:36:40.679Z,21.43
2022-07-28T18:39:07.483Z,21.86
2022-07-28T18:41:45.968Z,22.00
2022-07-28T18:44:15.503Z,21.57
2022-07-28T18:46:42.555Z,20.92
2022-07-28T18:49:09.311Z,20.65
2022-07-28T18:51:36.129Z,20.69
2022-07-28T18:54:02.765Z,21.04
2022-07-28T18:56:29.344Z,21.09
2022-07-28T18:58:57.152Z,20.84
2022-07-28T19:01:23.925Z,20.42
2022-07-28T19:03:50.759Z,19.97
2022-07-28T19:06:17.357Z,19.62
2022-07-28T19:08:44.087Z,19.35
2022-07-28T19:11:10.666Z,19.20
2022-07-28T19:13:37.446Z,19.04
2022-07-28T19:16:04.559Z,19.02
2022-07-28T19:18:31.225Z,18.85
2022-07-28T19:20:57.911Z,18.81
2022-07-28T19:23:24.612Z,18.74
2022-07-28T19:25:51.715Z,18.72
2022-07-28T19:28:18.519Z,18.75
2022-07-28T19:30:45.231Z,18.78
2022-07-28T19:33:14.677Z,18.59
2022-07-28T19:35:45.497Z,18.42
2022-07-28T19:38:12.554Z,18.39
2022-07-28T19:40:41.412Z,18.36
2022-07-28T19:43:08.103Z,18.34
2022-07-28T19:45:37.229Z,18.35
2022-07-28T19:48:04.185Z,18.38
2022-07-28T19:50:31.075Z,18.37
2022-07-28T19:52:58.076Z,18.30
2022-07-28T19:55:26.972Z,18.27
2022-07-28T19:57:56.130Z,18.22
2022-07-28T20:00:22.871Z,18.24
2022-07-28T20:02:49.697Z,18.20
2022-07-28T20:05:16.887Z,18.29
2022-07-28T20:07:43.557Z,18.28
2022-07-28T20:10:10.306Z,18.30
2022-07-28T20:12:37.316Z,18.37
2022-07-28T20:15:05.718Z,18.40
2022-07-28T20:17:40.114Z,18.44
2022-07-28T20:20:12.086Z,18.41
2022-07-28T20:22:41.043Z,18.36
2022-07-28T20:25:09.441Z,18.37
2022-07-28T20:27:40.966Z,18.32
2022-07-28T20:30:10.304Z,18.24
2022-07-28T20:32:37.932Z,18.24
2022-07-28T20:35:05.912Z,18.23
2022-07-28T20:37:36.720Z,18.19
2022-07-28T20:40:08.073Z,18.14
2022-07-28T20:42:37.660Z,18.25
2022-07-28T20:45:05.156Z,18.37
2022-07-28T20:47:37.674Z,18.43
2022-07-28T20:50:05.257Z,18.30
2022-07-28T20:52:33.724Z,18.24
2022-07-28T20:55:04.466Z,18.20
2022-07-28T20:57:31.367Z,18.08
2022-07-28T20:59:58.046Z,18.05
2022-07-28T21:02:24.734Z,18.08
2022-07-28T21:04:52.006Z,18.07
2022-07-28T21:07:59.568Z,18.12
2022-07-28T21:10:06.941Z,18.22
2022-07-28T21:12:36.750Z,18.24
2022-07-28T21:15:10.600Z,18.24
2022-07-28T21:17:37.497Z,18.17
2022-07-28T21:20:06.113Z,18.21
2022-07-28T21:22:32.891Z,18.25
2022-07-28T21:24:59.512Z,18.26
2022-07-28T21:27:26.217Z,18.16
2022-07-28T21:32:18.751Z,18.19
2022-07-28T21:34:45.456Z,18.17
2022-07-28T21:37:13.001Z,18.18
2022-07-28T21:39:39.945Z,18.18
2022-07-28T21:42:08.464Z,18.05
2022-07-28T21:44:36.538Z,17.90
2022-07-28T21:47:03.723Z,17.84
2022-07-28T21:49:31.347Z,17.90
2022-07-28T21:51:58.346Z,17.87
2022-07-28T21:54:25.037Z,17.78
2022-07-28T21:56:51.884Z,17.61
2022-07-28T21:59:18.500Z,17.55
2022-07-28T22:01:45.161Z,17.56
2022-07-28T22:04:12.145Z,17.55
2022-07-28T22:06:38.944Z,17.49
2022-07-28T22:09:05.561Z,17.32
2022-07-28T22:11:32.199Z,17.22
2022-07-28T22:13:58.854Z,17.26
2022-07-28T22:16:25.511Z,17.38
2022-07-28T22:18:52.254Z,17.42
2022-07-28T22:21:18.843Z,17.42
2022-07-28T22:23:45.485Z,17.46
2022-07-28T22:26:12.189Z,17.43
2022-07-28T22:28:38.897Z,17.46
2022-07-28T22:31:09.655Z,17.48
2022-07-28T22:33:40.044Z,17.52
2022-07-28T22:36:08.695Z,17.49
2022-07-28T22:38:36.013Z,17.47
2022-07-28T22:41:02.907Z,17.46
2022-07-28T22:43:32.163Z,17.46
2022-07-28T22:45:58.958Z,17.45
2022-07-28T22:48:25.656Z,17.42
2022-07-28T22:50:52.429Z,17.42
2022-07-28T22:53:19.054Z,17.40
2022-07-28T22:58:30.074Z,17.32
2022-07-28T23:00:56.937Z,17.29
2022-07-28T23:03:25.690Z,17.32
2022-07-28T23:06:00.589Z,17.19
2022-07-28T23:08:27.642Z,17.20
2022-07-28T23:10:54.576Z,17.27
2022-07-28T23:13:21.187Z,17.32
2022-07-28T23:15:47.829Z,17.32
2022-07-28T23:18:14.593Z,17.37
2022-07-28T23:20:41.784Z,17.39
2022-07-28T23:23:08.846Z,17.24
2022-07-28T23:25:42.693Z,17.15
2022-07-28T23:28:10.273Z,17.00
2022-07-28T23:30:37.477Z,16.97
2022-07-28T23:33:05.537Z,16.90
2022-07-28T23:35:32.579Z,16.90
2022-07-28T23:37:59.176Z,16.92
2022-07-28T23:40:25.915Z,16.91
2022-07-28T23:42:52.575Z,16.83
2022-07-28T23:45:19.306Z,16.84
2022-07-28T23:47:45.934Z,16.84
2022-07-28T23:50:12.575Z,16.79
2022-07-28T23:52:39.155Z,16.80
2022-07-28T23:55:06.621Z,16.78
2022-07-28T23:57:33.321Z,16.73
